UAL1152 KMCO-KEWR
Flight info
| Callsign | UAL1152 |
|---|---|
| Flight time | N/A |
| Altitude | 39000 |
| Route | FATHE4 VIYAP Q87 ALWZZ OGRAE Q99 QUART PHLBO4 |
| Aircraft | B736/M-SDE2E3FGHIRWXY/LB1 |
Departure
| Time | 2026-05-05 21:56 |
|---|---|
| Airport | Orlando International Airport (KMCO) |
Arrival
| Time | N/A |
|---|---|
| Airport | Newark Liberty International Airport (KEWR) |
| Time | Latitude | Longitude | Altitude | Speed | Heading |
|---|---|---|---|---|---|
| 2026-05-05 21:33 | 28.42753 | -81.31285 | 100 ft | 0 kts | 214° |
| 2026-05-05 21:43 | 28.42772 | -81.31269 | 99 ft | 4 kts | 222° |
| 2026-05-05 21:43 | 28.42792 | -81.31251 | 100 ft | 4 kts | 192° |
| 2026-05-05 21:44 | 28.42791 | -81.31242 | 100 ft | 0 kts | 122° |
| 2026-05-05 21:46 | 28.42786 | -81.31234 | 101 ft | 4 kts | 122° |
| 2026-05-05 21:46 | 28.42762 | -81.31189 | 101 ft | 8 kts | 122° |
| 2026-05-05 21:46 | 28.42724 | -81.31143 | 101 ft | 8 kts | 153° |
| 2026-05-05 21:47 | 28.42664 | -81.31127 | 101 ft | 10 kts | 166° |
| 2026-05-05 21:47 | 28.42593 | -81.31144 | 101 ft | 12 kts | 213° |
| 2026-05-05 21:47 | 28.42515 | -81.31198 | 100 ft | 15 kts | 211° |
| 2026-05-05 21:47 | 28.42421 | -81.31264 | 99 ft | 17 kts | 207° |
| 2026-05-05 21:48 | 28.42344 | -81.31189 | 99 ft | 17 kts | 109° |
| 2026-05-05 21:48 | 28.42323 | -81.31061 | 99 ft | 16 kts | 99° |
| 2026-05-05 21:48 | 28.42320 | -81.30936 | 99 ft | 16 kts | 88° |
| 2026-05-05 21:48 | 28.42325 | -81.30816 | 101 ft | 15 kts | 84° |
| 2026-05-05 21:49 | 28.42336 | -81.30699 | 105 ft | 16 kts | 85° |
| 2026-05-05 21:49 | 28.42344 | -81.30572 | 105 ft | 16 kts | 84° |
| 2026-05-05 21:49 | 28.42353 | -81.30439 | 100 ft | 20 kts | 86° |
| 2026-05-05 21:49 | 28.42361 | -81.30279 | 101 ft | 20 kts | 88° |
| 2026-05-05 21:50 | 28.42361 | -81.30124 | 103 ft | 19 kts | 87° |
| 2026-05-05 21:50 | 28.42363 | -81.29973 | 103 ft | 19 kts | 89° |
| 2026-05-05 21:50 | 28.42364 | -81.29827 | 102 ft | 18 kts | 89° |
| 2026-05-05 21:50 | 28.42361 | -81.29717 | 100 ft | 1 kts | 115° |
| 2026-05-05 21:51 | 28.42346 | -81.29706 | 99 ft | 5 kts | 152° |
| 2026-05-05 21:51 | 28.42295 | -81.29700 | 99 ft | 11 kts | 179° |
| 2026-05-05 21:51 | 28.42199 | -81.29696 | 99 ft | 15 kts | 177° |
| 2026-05-05 21:51 | 28.42095 | -81.29698 | 101 ft | 15 kts | 181° |
| 2026-05-05 21:52 | 28.41891 | -81.29694 | 102 ft | 16 kts | 182° |
| 2026-05-05 21:52 | 28.41773 | -81.29696 | 101 ft | 17 kts | 180° |
| 2026-05-05 21:52 | 28.41658 | -81.29692 | 103 ft | 16 kts | 178° |
| 2026-05-05 21:53 | 28.41547 | -81.29689 | 104 ft | 16 kts | 178° |
| 2026-05-05 21:53 | 28.41439 | -81.29683 | 101 ft | 16 kts | 176° |
| 2026-05-05 21:53 | 28.41330 | -81.29687 | 100 ft | 15 kts | 184° |
| 2026-05-05 21:53 | 28.41224 | -81.29688 | 101 ft | 15 kts | 180° |
| 2026-05-05 21:54 | 28.41123 | -81.29686 | 101 ft | 14 kts | 179° |
| 2026-05-05 21:54 | 28.41025 | -81.29685 | 98 ft | 14 kts | 181° |
| 2026-05-05 21:54 | 28.40958 | -81.29681 | 97 ft | 3 kts | 158° |
| 2026-05-05 21:54 | 28.40936 | -81.29648 | 96 ft | 9 kts | 109° |
| 2026-05-05 21:55 | 28.40936 | -81.29571 | 97 ft | 10 kts | 75° |
| 2026-05-05 21:55 | 28.40996 | -81.29561 | 98 ft | 0 kts | 356° |
| 2026-05-05 21:55 | 28.41072 | -81.29563 | 98 ft | 52 kts | 0° |
| 2026-05-05 21:55 | 28.41830 | -81.29562 | 112 ft | 160 kts | 1° |
| 2026-05-05 21:56 | 28.43105 | -81.29558 | 877 ft | 203 kts | 360° |
| 2026-05-05 21:56 | 28.44581 | -81.29576 | 2062 ft | 224 kts | 8° |
| 2026-05-05 21:56 | 28.46033 | -81.28916 | 3105 ft | 223 kts | 30° |
| 2026-05-05 21:56 | 28.47453 | -81.27990 | 3598 ft | 252 kts | 31° |
| 2026-05-05 21:57 | 28.49035 | -81.26944 | 4312 ft | 270 kts | 31° |
| 2026-05-05 21:57 | 28.50683 | -81.25857 | 5331 ft | 276 kts | 27° |
| 2026-05-05 21:57 | 28.52503 | -81.25198 | 6401 ft | 275 kts | 3° |
| 2026-05-05 21:57 | 28.54435 | -81.25056 | 6832 ft | 279 kts | 0° |
| 2026-05-05 21:58 | 28.56370 | -81.25062 | 6986 ft | 277 kts | 355° |
| 2026-05-05 21:58 | 28.58296 | -81.25173 | 6995 ft | 277 kts | 352° |
| 2026-05-05 21:58 | 28.60221 | -81.25452 | 7005 ft | 281 kts | 349° |
| 2026-05-05 21:58 | 28.62151 | -81.25786 | 7012 ft | 280 kts | 348° |
| 2026-05-05 21:59 | 28.64093 | -81.26100 | 7212 ft | 284 kts | 350° |
| 2026-05-05 21:59 | 28.66064 | -81.26379 | 8250 ft | 283 kts | 349° |
| 2026-05-05 21:59 | 28.68019 | -81.26646 | 9424 ft | 284 kts | 348° |
| 2026-05-05 21:59 | 28.69987 | -81.26915 | 10455 ft | 288 kts | 348° |
| 2026-05-05 22:00 | 28.72053 | -81.27201 | 10870 ft | 314 kts | 348° |
| 2026-05-05 22:00 | 28.74319 | -81.27516 | 11077 ft | 342 kts | 349° |
| 2026-05-05 22:00 | 28.76771 | -81.27851 | 11285 ft | 367 kts | 349° |
| 2026-05-05 22:00 | 28.79349 | -81.28199 | 11832 ft | 377 kts | 350° |
| 2026-05-05 22:01 | 28.81969 | -81.28552 | 12559 ft | 382 kts | 350° |
| 2026-05-05 22:01 | 28.84611 | -81.28908 | 13414 ft | 383 kts | 351° |
| 2026-05-05 22:01 | 28.87285 | -81.29178 | 14162 ft | 387 kts | 353° |
| 2026-05-05 22:01 | 28.89980 | -81.29384 | 14869 ft | 390 kts | 353° |
| 2026-05-05 22:02 | 28.92690 | -81.29586 | 15608 ft | 391 kts | 353° |
| 2026-05-05 22:02 | 28.95414 | -81.29805 | 16324 ft | 393 kts | 352° |
| 2026-05-05 22:02 | 28.98148 | -81.30036 | 17034 ft | 396 kts | 352° |
| 2026-05-05 22:02 | 29.00908 | -81.30296 | 17668 ft | 399 kts | 351° |
| 2026-05-05 22:03 | 29.03677 | -81.30608 | 18332 ft | 401 kts | 351° |
| 2026-05-05 22:03 | 29.06463 | -81.30932 | 18879 ft | 404 kts | 351° |
| 2026-05-05 22:03 | 29.09233 | -81.31248 | 19369 ft | 408 kts | 351° |
| 2026-05-05 22:03 | 29.12072 | -81.31549 | 19851 ft | 412 kts | 352° |
| 2026-05-05 22:04 | 29.14945 | -81.31756 | 20328 ft | 416 kts | 353° |
| 2026-05-05 22:04 | 29.17846 | -81.31915 | 20789 ft | 419 kts | 353° |
| 2026-05-05 22:04 | 29.20777 | -81.32064 | 21238 ft | 423 kts | 353° |
| 2026-05-05 22:04 | 29.23723 | -81.32217 | 21681 ft | 426 kts | 352° |
| 2026-05-05 22:05 | 29.26692 | -81.32380 | 22116 ft | 429 kts | 352° |
| 2026-05-05 22:05 | 29.29688 | -81.32553 | 22492 ft | 433 kts | 352° |
| 2026-05-05 22:05 | 29.32704 | -81.32731 | 22913 ft | 435 kts | 352° |
| 2026-05-05 22:05 | 29.35739 | -81.32913 | 23309 ft | 438 kts | 352° |
| 2026-05-05 22:06 | 29.38791 | -81.33097 | 23681 ft | 440 kts | 352° |
| 2026-05-05 22:06 | 29.41861 | -81.33283 | 24002 ft | 442 kts | 352° |
| 2026-05-05 22:06 | 29.44934 | -81.33468 | 24363 ft | 443 kts | 352° |
| 2026-05-05 22:06 | 29.48007 | -81.33652 | 24736 ft | 443 kts | 352° |
| 2026-05-05 22:07 | 29.51086 | -81.33838 | 25083 ft | 443 kts | 352° |
| 2026-05-05 22:07 | 29.54169 | -81.34024 | 25401 ft | 444 kts | 352° |
| 2026-05-05 22:07 | 29.57261 | -81.34211 | 25732 ft | 445 kts | 351° |
| 2026-05-05 22:07 | 29.60357 | -81.34398 | 26040 ft | 446 kts | 351° |
| 2026-05-05 22:08 | 29.63461 | -81.34586 | 26336 ft | 447 kts | 351° |
| 2026-05-05 22:08 | 29.66573 | -81.34771 | 26633 ft | 448 kts | 352° |
| 2026-05-05 22:08 | 29.69690 | -81.34950 | 26916 ft | 449 kts | 352° |
| 2026-05-05 22:08 | 29.72815 | -81.35128 | 27187 ft | 450 kts | 352° |
| 2026-05-05 22:09 | 29.75942 | -81.35306 | 27448 ft | 451 kts | 352° |
| 2026-05-05 22:09 | 29.79075 | -81.35484 | 27697 ft | 451 kts | 352° |
| 2026-05-05 22:09 | 29.82214 | -81.35663 | 27967 ft | 451 kts | 352° |
| 2026-05-05 22:09 | 29.85342 | -81.35841 | 28334 ft | 449 kts | 351° |
| 2026-05-05 22:10 | 29.88457 | -81.36018 | 28748 ft | 446 kts | 351° |
| 2026-05-05 22:10 | 29.91547 | -81.36194 | 29214 ft | 443 kts | 351° |
| 2026-05-05 22:10 | 29.94616 | -81.36369 | 29703 ft | 440 kts | 351° |
| 2026-05-05 22:10 | 29.97666 | -81.36544 | 30197 ft | 437 kts | 351° |
| 2026-05-05 22:11 | 30.00694 | -81.36719 | 30653 ft | 434 kts | 351° |
| 2026-05-05 22:11 | 30.03696 | -81.36892 | 31139 ft | 431 kts | 351° |
| 2026-05-05 22:11 | 30.06637 | -81.37061 | 31656 ft | 427 kts | 350° |
| 2026-05-05 22:11 | 30.09587 | -81.37231 | 32195 ft | 423 kts | 350° |
| 2026-05-05 22:12 | 30.12511 | -81.37399 | 32809 ft | 419 kts | 349° |
| 2026-05-05 22:12 | 30.15400 | -81.37565 | 33417 ft | 414 kts | 349° |
| 2026-05-05 22:12 | 30.18258 | -81.37729 | 34046 ft | 408 kts | 349° |
| 2026-05-05 22:12 | 30.21081 | -81.37892 | 34534 ft | 405 kts | 349° |
| 2026-05-05 22:13 | 30.23896 | -81.38057 | 34876 ft | 405 kts | 348° |
| 2026-05-05 22:13 | 30.26708 | -81.38223 | 35192 ft | 405 kts | 348° |
| 2026-05-05 22:13 | 30.29524 | -81.38388 | 35530 ft | 404 kts | 348° |
| 2026-05-05 22:13 | 30.32323 | -81.38550 | 35902 ft | 402 kts | 348° |
| 2026-05-05 22:14 | 30.35117 | -81.38712 | 36267 ft | 401 kts | 348° |
| 2026-05-05 22:14 | 30.37900 | -81.38874 | 36595 ft | 400 kts | 348° |
| 2026-05-05 22:14 | 30.40680 | -81.39036 | 36918 ft | 399 kts | 348° |
| 2026-05-05 22:14 | 30.43450 | -81.39197 | 37251 ft | 398 kts | 348° |
| 2026-05-05 22:15 | 30.46215 | -81.39357 | 37587 ft | 397 kts | 348° |
| 2026-05-05 22:15 | 30.48972 | -81.39509 | 37915 ft | 396 kts | 348° |
| 2026-05-05 22:15 | 30.51724 | -81.39655 | 38223 ft | 396 kts | 347° |
| 2026-05-05 22:15 | 30.54475 | -81.39801 | 38484 ft | 396 kts | 347° |
| 2026-05-05 22:16 | 30.57226 | -81.39946 | 38725 ft | 396 kts | 347° |
| 2026-05-05 22:16 | 30.59974 | -81.40092 | 38954 ft | 395 kts | 347° |
| 2026-05-05 22:16 | 30.62726 | -81.40239 | 39072 ft | 397 kts | 347° |
| 2026-05-05 22:17 | 30.68256 | -81.40535 | 39120 ft | 397 kts | 347° |
| 2026-05-05 22:17 | 30.73759 | -81.40827 | 39089 ft | 395 kts | 347° |
| 2026-05-05 22:18 | 30.79246 | -81.41121 | 39070 ft | 394 kts | 347° |
| 2026-05-05 22:18 | 30.84722 | -81.41415 | 39069 ft | 394 kts | 347° |
| 2026-05-05 22:19 | 30.90159 | -81.41708 | 39062 ft | 394 kts | 347° |
| 2026-05-05 22:19 | 30.95631 | -81.42003 | 39056 ft | 394 kts | 347° |
| 2026-05-05 22:20 | 31.01117 | -81.42300 | 39064 ft | 395 kts | 348° |
| 2026-05-05 22:20 | 31.06610 | -81.42596 | 39059 ft | 396 kts | 348° |
| 2026-05-05 22:21 | 31.12112 | -81.42892 | 39054 ft | 396 kts | 348° |
| 2026-05-05 22:21 | 31.17618 | -81.43190 | 39056 ft | 396 kts | 348° |
| 2026-05-05 22:22 | 31.23127 | -81.43469 | 39072 ft | 399 kts | 351° |
| 2026-05-05 22:22 | 31.25943 | -81.43066 | 39084 ft | 418 kts | 4° |
| 2026-05-05 22:22 | 31.28730 | -81.41877 | 39085 ft | 433 kts | 12° |
| 2026-05-05 22:23 | 31.34209 | -81.38861 | 39069 ft | 436 kts | 14° |
| 2026-05-05 22:23 | 31.39675 | -81.35786 | 39066 ft | 435 kts | 14° |
| 2026-05-05 22:24 | 31.45150 | -81.32773 | 39066 ft | 434 kts | 13° |
| 2026-05-05 22:24 | 31.50630 | -81.29789 | 39082 ft | 434 kts | 13° |
| 2026-05-05 22:25 | 31.56109 | -81.26806 | 39068 ft | 434 kts | 14° |
| 2026-05-05 22:25 | 31.61586 | -81.23817 | 39057 ft | 434 kts | 14° |
| 2026-05-05 22:26 | 31.67063 | -81.20824 | 39048 ft | 434 kts | 14° |
| 2026-05-05 22:26 | 31.72532 | -81.17832 | 39048 ft | 434 kts | 14° |
| 2026-05-05 22:27 | 31.77997 | -81.14840 | 39069 ft | 433 kts | 14° |
| 2026-05-05 22:27 | 31.83462 | -81.11842 | 39052 ft | 433 kts | 14° |
| 2026-05-05 22:28 | 31.87999 | -81.09351 | 39045 ft | 433 kts | 14° |
| 2026-05-05 22:28 | 31.94340 | -81.05864 | 39048 ft | 433 kts | 14° |
| 2026-05-05 22:29 | 31.99788 | -81.02864 | 39047 ft | 432 kts | 14° |
| 2026-05-05 22:29 | 32.04352 | -81.00328 | 39077 ft | 432 kts | 14° |
| 2026-05-05 22:30 | 32.09743 | -80.97308 | 39055 ft | 432 kts | 14° |
| 2026-05-05 22:30 | 32.15160 | -80.94269 | 39079 ft | 430 kts | 14° |
| 2026-05-05 22:31 | 32.20566 | -80.91236 | 39092 ft | 430 kts | 14° |
| 2026-05-05 22:31 | 32.25962 | -80.88206 | 39097 ft | 429 kts | 14° |
| 2026-05-05 22:32 | 32.31343 | -80.85181 | 39108 ft | 428 kts | 14° |
| 2026-05-05 22:32 | 32.36708 | -80.82160 | 39085 ft | 427 kts | 14° |
| 2026-05-05 22:33 | 32.42068 | -80.79139 | 39083 ft | 426 kts | 14° |
| 2026-05-05 22:33 | 32.47417 | -80.76119 | 39084 ft | 426 kts | 14° |
| 2026-05-05 22:34 | 32.52760 | -80.73100 | 39081 ft | 425 kts | 14° |
| 2026-05-05 22:34 | 32.58100 | -80.70078 | 39089 ft | 426 kts | 14° |
| 2026-05-05 22:35 | 32.63446 | -80.67047 | 39082 ft | 426 kts | 14° |
| 2026-05-05 22:35 | 32.68797 | -80.64010 | 39079 ft | 426 kts | 14° |
| 2026-05-05 22:36 | 32.74107 | -80.60959 | 39073 ft | 428 kts | 15° |
| 2026-05-05 22:36 | 32.79434 | -80.57795 | 39076 ft | 428 kts | 15° |
| 2026-05-05 22:37 | 32.84768 | -80.54612 | 39081 ft | 429 kts | 15° |
| 2026-05-05 22:37 | 32.90104 | -80.51432 | 39083 ft | 429 kts | 15° |
| 2026-05-05 22:38 | 32.95430 | -80.48260 | 39073 ft | 428 kts | 15° |
| 2026-05-05 22:38 | 33.00745 | -80.45093 | 39066 ft | 427 kts | 15° |
| 2026-05-05 22:39 | 33.06049 | -80.41928 | 39064 ft | 426 kts | 15° |
| 2026-05-05 22:39 | 33.11343 | -80.38766 | 39067 ft | 426 kts | 15° |
| 2026-05-05 22:40 | 33.16636 | -80.35599 | 39061 ft | 425 kts | 15° |
| 2026-05-05 22:40 | 33.21925 | -80.32431 | 39062 ft | 425 kts | 15° |
| 2026-05-05 22:41 | 33.27215 | -80.29257 | 39066 ft | 426 kts | 15° |
| 2026-05-05 22:41 | 33.32506 | -80.26079 | 39062 ft | 425 kts | 15° |
| 2026-05-05 22:42 | 33.37779 | -80.22905 | 39058 ft | 424 kts | 15° |
| 2026-05-05 22:42 | 33.43039 | -80.19736 | 39063 ft | 423 kts | 15° |
| 2026-05-05 22:43 | 33.48287 | -80.16570 | 39080 ft | 422 kts | 15° |
| 2026-05-05 22:43 | 33.53520 | -80.13409 | 39071 ft | 421 kts | 15° |
| 2026-05-05 22:44 | 33.58738 | -80.10252 | 39066 ft | 419 kts | 15° |